Latest Coastal Weather Observations for Low Head

IDT60701

Issued at 7:32 pm EST Wednesday 6 May 2026 (issued every 10 minutes, with the page automatically refreshed every 10 minutes)

About coastal observations | Map of coastal stations | Coastal observations for TAS | Marine services | Other Formats
Station Details ID: 091293 Name: LOW HEAD Lat: -41.05 Lon: 146.79 Height: 3.0 m
Data from the previous 72 hours. | See also: Recent months at Low Head
Date/Time
EST
Wind Sea
Height
m
Swell Vis
km
Cloud Weather Temp
°C
Press
MSL
hPa
Rain since
9am
mm
Dir  Spd
kts
Gust
kts
Height
m
Period
s
Dir
06/07:30pm W 24 27 - - - - - - - 12.4 1008.3 0.0
06/07:00pm W 28 33 - - - - - - - 13.4 1007.9 0.0
06/06:30pm WSW 24 30 - - - - - - - 14.2 1007.4 0.0
06/06:18pm W 25 31 - - - - - - - 14.5 1007.1 0.0
06/06:00pm WNW 22 27 - - - - - - - 14.6 1006.8 0.0
06/05:30pm WNW 23 27 - - - - - - - 14.4 1007.1 0.0
06/05:00pm NW 26 30 - - - - - - - 15.5 1007.4 0.0
06/04:30pm WNW 21 25 - - - - - - - 15.7 1008.0 0.0
06/04:00pm NW 25 29 - - - - - - - 16.1 1008.5 0.0
06/03:30pm WNW 25 31 - - - - - - - 16.4 1009.1 0.0
06/03:00pm WNW 24 29 - - - - - - - 16.2 1009.4 0.0
06/02:30pm WNW 26 32 - - - - - - - 16.3 1009.8 0.0
06/02:00pm WNW 25 32 - - - - - - - 14.9 1010.4 0.0
06/01:30pm WNW 22 26 - - - - - - - 15.9 1010.7 0.0
06/01:00pm WNW 23 27 - - - - - - - 15.6 1011.1 0.0
06/12:30pm NW 23 29 - - - - - - - 15.5 1011.8 0.0
06/12:00pm NW 25 31 - - - - - - - 16.5 1012.4 0.0
06/11:30am NW 24 28 - - - - - - - 17.0 1012.9 0.0
06/11:00am NW 23 27 - - - - - - - 16.5 1013.4 0.0
06/10:30am NW 22 26 - - - - - - - 17.2 1013.7 0.0
06/10:00am NW 21 26 - - - - - - - 17.0 1014.1 0.0
06/09:30am WNW 20 26 - - - - - - - 16.3 1014.5 0.0
06/09:00am WNW 22 27 - - - - - - - 15.5 1014.9 0.4
06/08:31am WNW 24 34 - - - - - - - 14.4 1015.1 0.4
06/08:30am WNW 25 34 - - - - - - - 14.2 1015.2 0.4
06/08:09am WNW 23 33 - - - - - - - 15.7 1015.2 0.4
06/08:00am WNW 23 27 - - - - - - - 15.6 1015.1 0.4
06/07:30am NW 22 27 - - - - - - - 15.8 1015.2 0.2
06/07:00am WNW 23 28 - - - - - - - 15.6 1015.1 0.2
06/06:30am WNW 23 27 - - - - - - - 15.6 1015.3 0.2
06/06:00am WNW 23 28 - - - - - - - 15.4 1015.5 0.2
06/05:30am WNW 21 27 - - - - - - - 15.0 1015.6 0.2
06/05:00am WNW 21 25 - - - - - - - 14.9 1015.8 0.2
06/04:30am WNW 24 30 - - - - - - - 14.3 1016.1 0.2
06/04:00am WNW 24 29 - - - - - - - 14.4 1016.0 0.2
06/03:30am WNW 21 25 - - - - - - - 14.7 1016.1 0.0
06/03:00am WNW 25 29 - - - - - - - 14.2 1016.7 0.0
06/02:30am WNW 22 28 - - - - - - - 15.1 1016.8 0.0
06/02:00am WNW 21 25 - - - - - - - 15.0 1017.0 0.0
06/01:30am WNW 17 20 - - - - - - - 14.7 1017.3 0.0
06/01:00am W 14 17 - - - - - - - 15.0 1017.5 0.0
06/12:30am W 12 14 - - - - - - - 14.7 1017.5 0.0
06/12:00am W 14 17 - - - - - - - 15.1 1017.5 0.0
 
Date/Time
EST
Wind Sea
Height
m
Swell Vis
km
Cloud Weather Temp
°C
Press
MSL
hPa
Rain since
9am
mm
Dir  Spd
kts
Gust
kts
Height
m
Period
s
Dir
05/11:30pm W 16 19 - - - - - - - 14.8 1017.7 0.0
05/11:00pm W 15 18 - - - - - - - 14.6 1018.0 0.0
05/10:30pm W 18 21 - - - - - - - 14.4 1018.2 0.0
05/10:00pm W 18 20 - - - - - - - 14.4 1018.3 0.0
05/09:30pm W 19 22 - - - - - - - 14.5 1018.3 0.0
05/09:00pm W 19 21 - - - - - - - 14.2 1018.2 0.0
05/08:30pm W 18 22 - - - - - - - 14.5 1018.1 0.0
05/08:00pm W 19 22 - - - - - - - 14.6 1018.0 0.0
05/07:30pm W 21 25 - - - - - - - 14.7 1017.8 0.0
05/07:00pm W 21 23 - - - - - - - 14.9 1017.6 0.0
05/06:30pm W 19 22 - - - - - - - 15.0 1017.3 0.0
05/06:00pm W 23 26 - - - - - - - 15.3 1016.5 0.0
05/05:30pm W 22 26 - - - - - - - 15.4 1016.0 0.0
05/05:00pm W 23 27 - - - - - - - 15.7 1015.7 0.0
05/04:30pm W 25 29 - - - - - - - 15.9 1015.1 0.0
05/04:00pm W 22 26 - - - - - - - 16.2 1014.7 0.0
05/03:30pm W 22 26 - - - - - - - 16.4 1014.6 0.0
05/03:00pm WNW 22 25 - - - - - - - 16.5 1014.2 0.0
05/02:30pm WNW 20 24 - - - - - - - 16.6 1014.0 0.0
05/02:00pm WNW 18 21 - - - - - - - 16.7 1013.8 0.0
05/01:30pm WNW 21 25 - - - - - - - 16.3 1013.5 0.0
05/01:00pm W 23 27 - - - - - - - 16.2 1013.5 0.0
05/12:30pm W 20 22 - - - - - - - 16.3 1013.3 0.0
05/12:00pm W 19 21 - - - - - - - 16.3 1013.4 0.0
05/11:30am W 19 21 - - - - - - - 16.0 1013.4 0.0
05/11:00am W 19 22 - - - - - - - 15.9 1013.0 0.0
05/10:30am W 19 21 - - - - - - - 15.8 1012.5 0.0
05/10:00am WSW 17 21 - - - - - - - 15.4 1012.2 0.0
05/09:30am WSW 16 18 - - - - - - - 14.7 1012.0 0.0
05/09:00am WSW 15 19 - - - - - - - 14.2 1011.9 3.6
05/08:30am SW 9 11 - - - - - - - 13.8 1011.7 3.6
05/08:00am WSW 9 11 - - - - - - - 13.7 1011.1 3.6
05/07:30am WSW 11 13 - - - - - - - 13.6 1010.4 3.6
05/07:00am WSW 8 11 - - - - - - - 13.2 1009.8 3.6
05/06:30am SSW 7 9 - - - - - - - 12.9 1009.0 3.6
05/06:00am SSE 8 11 - - - - - - - 12.5 1008.4 3.6
05/05:30am S 10 12 - - - - - - - 13.2 1008.3 3.6
05/05:00am S 13 15 - - - - - - - 13.5 1007.8 3.6
05/04:30am SSE 8 11 - - - - - - - 13.4 1007.2 3.6
05/04:00am SSE 7 11 - - - - - - - 14.3 1007.0 3.2
05/03:30am N 5 6 - - - - - - - 14.7 1006.6 1.6
05/03:00am N 8 9 - - - - - - Recent precip. 15.3 1006.4 1.6
05/02:30am N 8 10 - - - - - - - 15.2 1006.5 1.6
05/02:00am N 11 13 - - - - - - - 15.9 1006.6 0.0
05/01:30am N 11 14 - - - - - - - 15.7 1006.8 0.0
05/01:00am N 14 18 - - - - - - - 15.8 1007.0 0.0
05/12:30am N 18 21 - - - - - - - 15.9 1007.2 0.0
05/12:00am N 20 23 - - - - - - - 16.0 1007.4 0.0
 
Date/Time
EST
Wind Sea
Height
m
Swell Vis
km
Cloud Weather Temp
°C
Press
MSL
hPa
Rain since
9am
mm
Dir  Spd
kts
Gust
kts
Height
m
Period
s
Dir
04/11:30pm N 19 23 - - - - - - - 16.2 1007.7 0.0
04/11:00pm NNW 19 21 - - - - - - - 16.1 1008.1 0.0
04/10:30pm NNW 19 22 - - - - - - - 15.9 1008.5 0.0
04/10:00pm NW 18 21 - - - - - - - 15.7 1008.6 0.0
04/09:41pm NNW 24 33 - - - - - - - 16.0 1008.4 0.0
04/09:39pm N 23 33 - - - - - - - 16.6 1008.2 0.0
04/09:30pm N 19 25 - - - - - - - 16.8 1008.1 0.0
04/09:00pm NNE 16 19 - - - - - - - 16.9 1008.0 0.0
04/08:30pm N 16 19 - - - - - - - 16.8 1008.2 0.0
04/08:00pm N 14 17 - - - - - - - 16.8 1008.4 0.0
04/07:30pm N 14 16 - - - - - - - 16.7 1008.5 0.0
04/07:00pm N 16 19 - - - - - - - 16.8 1008.5 0.0
04/06:30pm N 17 21 - - - - - - - 16.7 1008.5 0.0
04/06:00pm N 16 19 - - - - - - - 16.6 1008.3 0.0
04/05:30pm N 17 19 - - - - - - - 16.7 1008.2 0.0
04/05:00pm N 14 16 - - - - - - - 16.7 1008.2 0.0
04/04:30pm N 13 15 - - - - - - - 16.9 1008.3 0.0
04/04:00pm NNW 14 17 - - - - - - - 17.2 1008.3 0.0
04/03:30pm N 15 18 - - - - - - - 17.2 1008.4 0.0
04/03:00pm N 16 18 - - - - - - - 17.2 1008.5 0.0
04/02:30pm N 15 17 - - - - - - - 16.8 1008.4 0.0
04/02:00pm N 17 20 - - - - - - - 16.9 1008.5 0.0
04/01:30pm N 16 19 - - - - - - - 16.6 1008.7 0.0
04/01:00pm N 17 19 - - - - - - - 16.9 1009.0 0.0
04/12:30pm N 17 19 - - - - - - - 17.2 1009.4 0.0
04/12:00pm N 16 19 - - - - - - - 17.3 1010.0 0.0
04/11:30am N 15 17 - - - - - - - 17.1 1010.2 0.0
04/11:00am N 16 19 - - - - - - - 17.4 1010.5 0.0
04/10:30am N 17 19 - - - - - - - 16.9 1010.7 0.0
04/10:00am N 17 20 - - - - - - - 16.7 1010.7 0.0
04/09:30am NNW 15 18 - - - - - - - 16.8 1010.7 0.0
04/09:00am NNW 14 16 - - - - - - - 16.2 1010.5 12.2
04/08:30am NNW 12 14 - - - - - - - 16.7 1010.4 12.2
04/08:00am NNW 14 16 - - - - - - - 16.3 1010.3 12.2
04/07:30am NNW 12 15 - - - - - - - 16.1 1010.1 12.2
04/07:00am NW 15 17 - - - - - - - 15.9 1009.9 12.2
04/06:30am NW 16 18 - - - - - - - 15.9 1009.8 12.2
04/06:00am NW 15 18 - - - - - - - 16.1 1009.9 12.2
04/05:30am NNW 15 18 - - - - - - - 16.3 1009.7 12.2
04/05:00am NNW 13 16 - - - - - - - 16.2 1009.5 12.2
04/04:30am NNW 12 15 - - - - - - - 16.1 1009.5 12.2
04/04:00am NNW 12 14 - - - - - - - 16.1 1009.9 12.2
04/03:30am NNW 10 12 - - - - - - - 16.0 1009.9 12.2
04/03:00am NW 8 9 - - - - - - - 15.8 1010.1 12.2
04/02:30am NW 8 9 - - - - - - - 15.6 1010.4 12.2
04/02:00am NW 8 9 - - - - - - - 15.5 1010.5 12.2
04/01:30am NW 9 11 - - - - - - - 15.6 1010.4 12.2
04/01:00am NW 10 12 - - - - - - - 15.5 1010.7 12.2
04/12:30am WNW 9 11 - - - - - - - 15.4 1010.4 12.2
04/12:00am WNW 8 9 - - - - - - - 15.4 1010.5 12.2
 
Date/Time
EST
Wind Sea
Height
m
Swell Vis
km
Cloud Weather Temp
°C
Press
MSL
hPa
Rain since
9am
mm
Dir  Spd
kts
Gust
kts
Height
m
Period
s
Dir
03/11:30pm WNW 7 9 - - - - - - - 15.6 1010.6 12.2
03/11:00pm WNW 9 11 - - - - - - - 15.8 1011.1 12.2
03/10:30pm NW 9 11 - - - - - - - 16.0 1011.3 12.2
03/10:00pm NW 8 10 - - - - - - - 16.0 1011.0 12.2
03/09:30pm NW 11 14 - - - - - - - 16.2 1010.8 12.2
03/09:00pm NNW 11 13 - - - - - - - 16.7 1011.1 12.2
03/08:30pm N 13 16 - - - - - - - 16.7 1010.7 12.2
03/08:00pm NNE 15 17 - - - - - - - 16.7 1010.6 12.2

Other formats

Comma delimited format used in spreadsheet applications
http://www.bom.gov.au/fwo/IDT60701/IDT60701.95964.axf

JavaScript Object Notation format (JSON) in row-major order
http://www.bom.gov.au/fwo/IDT60701/IDT60701.95964.json

Data quality

Most of these data are generated automatically and are frequently updated. Quality checks on data are not normally performed. It is possible for incorrect values to appear. Refer to information at About Latest Weather Observations and please check the disclaimer before using these data.